createdAt,value
2018-01-08T00:00:55.391Z,98924.16
2018-01-08T00:03:22.849Z,98931.17
2018-01-08T00:05:50.302Z,98937.64
2018-01-08T00:08:18.254Z,98933.92
2018-01-08T00:10:45.701Z,98943.48
2018-01-08T00:13:13.152Z,98940.72
2018-01-08T00:15:41.053Z,98942.13
2018-01-08T00:18:08.505Z,98935.56
2018-01-08T00:20:35.949Z,98936.88
2018-01-08T00:23:03.731Z,98938.39
2018-01-08T00:25:31.172Z,98928.65
2018-01-08T00:27:58.620Z,98928.28
2018-01-08T00:30:26.730Z,98921.37
2018-01-08T00:32:54.173Z,98920.97
2018-01-08T00:35:21.622Z,98922.57
2018-01-08T00:37:49.409Z,98927.13
2018-01-08T00:40:17.133Z,98928.18
2018-01-08T00:42:44.593Z,98925.69
2018-01-08T00:45:12.410Z,98921.37
2018-01-08T00:47:39.875Z,98918.45
2018-01-08T00:50:07.326Z,98926.93
2018-01-08T00:52:35.093Z,98931.36
2018-01-08T00:55:02.550Z,98933.23
2018-01-08T00:57:30.696Z,98930.94
2018-01-08T00:59:58.717Z,98943.41
2018-01-08T01:02:26.168Z,98938.61
2018-01-08T01:04:53.617Z,98943.47
2018-01-08T01:07:21.457Z,98940.73
2018-01-08T01:09:48.906Z,98940.69
2018-01-08T01:12:16.425Z,98940.41
2018-01-08T01:14:44.392Z,98950.03
2018-01-08T01:17:11.892Z,98964.07
2018-01-08T01:19:39.353Z,98962.21
2018-01-08T01:22:07.076Z,98954.70
2018-01-08T01:24:34.538Z,98961.48
2018-01-08T01:27:01.985Z,98966.78
2018-01-08T01:29:29.755Z,98955.86
2018-01-08T01:31:57.202Z,98960.95
2018-01-08T01:34:24.653Z,98958.77
2018-01-08T01:36:52.449Z,98965.80
2018-01-08T01:39:19.894Z,98959.63
2018-01-08T01:41:47.349Z,98953.87
2018-01-08T01:44:15.098Z,98949.33
2018-01-08T01:46:42.554Z,98945.52
2018-01-08T01:49:19.890Z,98939.30
2018-01-08T01:51:47.336Z,98940.97
2018-01-08T01:54:14.788Z,98940.27
2018-01-08T01:56:42.576Z,98936.25
2018-01-08T01:59:11.334Z,98939.06
2018-01-08T02:01:38.834Z,98940.17
2018-01-08T02:04:06.789Z,98935.64
2018-01-08T02:06:34.228Z,98945.69
2018-01-08T02:09:01.685Z,98950.19
2018-01-08T02:11:29.504Z,98950.48
2018-01-08T02:13:56.949Z,98951.86
2018-01-08T02:16:24.414Z,98950.11
2018-01-08T02:18:52.215Z,98950.96
2018-01-08T02:21:19.683Z,98952.57
2018-01-08T02:23:47.145Z,98949.55
2018-01-08T02:26:15.095Z,98949.27
2018-01-08T02:28:42.549Z,98954.14
2018-01-08T02:31:09.997Z,98951.88
2018-01-08T02:33:37.696Z,98951.59
2018-01-08T02:36:05.154Z,98947.58
2018-01-08T02:38:32.614Z,98951.27
2018-01-08T02:41:00.540Z,98950.78
2018-01-08T02:43:28.006Z,98953.94
2018-01-08T02:45:55.462Z,98965.12
2018-01-08T02:48:23.529Z,98962.10
2018-01-08T02:50:50.988Z,98968.42
2018-01-08T02:53:18.438Z,98975.68
2018-01-08T02:55:46.239Z,98981.49
2018-01-08T02:58:13.697Z,98979.80
2018-01-08T03:00:41.814Z,98983.31
2018-01-08T03:03:10.137Z,98978.21
2018-01-08T03:05:37.589Z,98974.03
2018-01-08T03:08:05.070Z,98982.03
2018-01-08T03:10:32.847Z,98977.41
2018-01-08T03:13:00.305Z,98981.70
2018-01-08T03:15:27.759Z,98980.13
2018-01-08T03:17:55.816Z,98980.36
2018-01-08T03:20:23.272Z,98979.59
2018-01-08T03:22:50.724Z,98979.86
2018-01-08T03:25:18.505Z,98982.38
2018-01-08T03:27:45.972Z,98990.97
2018-01-08T03:30:13.428Z,98988.52
2018-01-08T03:32:41.185Z,98991.67
2018-01-08T03:35:08.641Z,98987.59
2018-01-08T03:37:36.086Z,98989.23
2018-01-08T03:40:04.186Z,98976.80
2018-01-08T03:42:31.652Z,98981.61
2018-01-08T03:44:59.111Z,98982.89
2018-01-08T03:47:26.890Z,98990.06
2018-01-08T03:49:54.365Z,98990.30
2018-01-08T03:52:21.838Z,98985.20
2018-01-08T03:54:49.561Z,98989.31
2018-01-08T03:57:18.397Z,98986.93
2018-01-08T03:59:45.857Z,98989.83
2018-01-08T04:02:15.014Z,98995.48
2018-01-08T04:04:42.472Z,98987.69
2018-01-08T04:07:09.941Z,98984.61
2018-01-08T04:09:37.701Z,98998.58
2018-01-08T04:12:05.171Z,98998.92
2018-01-08T04:14:32.621Z,99008.09
2018-01-08T04:17:00.665Z,99002.09
2018-01-08T04:19:28.120Z,99011.18
2018-01-08T04:21:55.574Z,99005.91
2018-01-08T04:24:23.368Z,99001.23
2018-01-08T04:26:50.838Z,99002.78
2018-01-08T04:29:18.290Z,99000.17
2018-01-08T04:31:46.060Z,99005.86
2018-01-08T04:34:13.516Z,99010.16
2018-01-08T04:36:40.971Z,99006.88
2018-01-08T04:39:09.054Z,99007.84
2018-01-08T04:41:36.505Z,99013.55
2018-01-08T04:44:03.962Z,99017.03
2018-01-08T04:46:31.740Z,99027.15
2018-01-08T04:48:59.191Z,99023.52
2018-01-08T04:51:26.641Z,99026.84
2018-01-08T04:53:54.438Z,99024.34
2018-01-08T04:56:21.881Z,99035.17
2018-01-08T04:58:49.348Z,99034.86
2018-01-08T05:01:17.424Z,99040.22
2018-01-08T05:03:45.378Z,99037.92
2018-01-08T05:06:12.826Z,99037.00
2018-01-08T05:08:40.417Z,99035.64
2018-01-08T05:11:07.860Z,99042.70
2018-01-08T05:13:35.309Z,99036.73
2018-01-08T05:16:02.981Z,99042.81
2018-01-08T05:18:30.425Z,99033.56
2018-01-08T05:20:57.869Z,99029.90
2018-01-08T05:23:25.503Z,99029.00
2018-01-08T05:25:52.945Z,99026.60
2018-01-08T05:28:20.402Z,99029.97
2018-01-08T05:30:48.744Z,99031.70
2018-01-08T05:33:16.195Z,99035.84
2018-01-08T05:35:43.637Z,99049.86
2018-01-08T05:38:11.333Z,99053.83
2018-01-08T05:40:38.781Z,99046.92
2018-01-08T05:43:06.220Z,99041.28
2018-01-08T05:45:33.856Z,99047.80
2018-01-08T05:48:01.304Z,99053.51
2018-01-08T05:50:28.746Z,99062.95
2018-01-08T05:52:56.545Z,99057.05
2018-01-08T05:55:24.009Z,99055.61
2018-01-08T05:57:51.469Z,99054.13
2018-01-08T06:00:19.544Z,99052.20
2018-01-08T06:02:47.001Z,99052.95
2018-01-08T06:05:15.133Z,99053.67
2018-01-08T06:07:42.851Z,99059.47
2018-01-08T06:10:10.298Z,99064.74
2018-01-08T06:12:37.738Z,99068.70
2018-01-08T06:15:05.533Z,99066.85
2018-01-08T06:17:32.981Z,99063.25
2018-01-08T06:20:00.425Z,99056.28
2018-01-08T06:22:28.062Z,99062.78
2018-01-08T06:24:55.517Z,99064.67
2018-01-08T06:27:22.961Z,99064.67
2018-01-08T06:29:50.588Z,99068.79
2018-01-08T06:32:18.038Z,99069.37
2018-01-08T06:34:45.488Z,99079.34
2018-01-08T06:37:13.278Z,99076.30
2018-01-08T06:39:40.719Z,99079.42
2018-01-08T06:42:08.162Z,99085.09
2018-01-08T06:44:35.961Z,99091.06
2018-01-08T06:47:03.409Z,99099.89
2018-01-08T06:49:30.856Z,99103.92
2018-01-08T06:51:58.649Z,99097.94
2018-01-08T06:54:26.090Z,99098.25
2018-01-08T06:56:53.535Z,99103.80
2018-01-08T06:59:21.338Z,99103.73
2018-01-08T07:01:48.786Z,99106.20
2018-01-08T07:04:16.235Z,99120.32
2018-01-08T07:06:44.644Z,99120.25
2018-01-08T07:09:12.095Z,99125.60
2018-01-08T07:11:39.533Z,99126.80
2018-01-08T07:14:07.937Z,99134.45
2018-01-08T07:16:35.384Z,99129.56
2018-01-08T07:19:02.827Z,99129.18
2018-01-08T07:21:30.569Z,99114.48
2018-01-08T07:23:58.009Z,99115.91
2018-01-08T07:26:25.452Z,99120.36
2018-01-08T07:28:53.314Z,99124.91
2018-01-08T07:31:20.759Z,99123.49
2018-01-08T07:33:48.213Z,99116.56
2018-01-08T07:36:16.025Z,99123.59
2018-01-08T07:38:43.476Z,99126.09
2018-01-08T07:41:10.929Z,99126.52
2018-01-08T07:43:38.694Z,99126.91
2018-01-08T07:46:06.151Z,99136.09
2018-01-08T07:48:33.640Z,99136.09
2018-01-08T07:51:01.335Z,99137.08
2018-01-08T07:53:28.800Z,99133.41
2018-01-08T07:55:56.252Z,99139.47
2018-01-08T07:58:24.074Z,99138.31
2018-01-08T08:00:51.517Z,99131.59
2018-01-08T08:03:18.976Z,99132.65
2018-01-08T08:05:46.745Z,99132.41
2018-01-08T08:08:14.272Z,99130.69
2018-01-08T08:10:41.719Z,99128.27
2018-01-08T08:13:09.433Z,99126.63
2018-01-08T08:15:36.882Z,99133.71
2018-01-08T08:18:04.334Z,99142.86
2018-01-08T08:20:32.124Z,99143.32
2018-01-08T08:22:59.566Z,99138.28
2018-01-08T08:25:27.025Z,99134.69
2018-01-08T08:27:55.123Z,99130.84
2018-01-08T08:30:22.569Z,99129.59
2018-01-08T08:32:50.014Z,99128.44
2018-01-08T08:35:17.800Z,99137.99
2018-01-08T08:37:45.246Z,99133.06
2018-01-08T08:40:12.707Z,99127.34
2018-01-08T08:42:40.797Z,99130.38
2018-01-08T08:45:08.250Z,99122.89
2018-01-08T08:47:35.709Z,99131.86
2018-01-08T08:50:03.489Z,99137.44
2018-01-08T08:52:30.934Z,99144.77
2018-01-08T08:54:58.382Z,99145.48
2018-01-08T08:57:26.180Z,99146.38
2018-01-08T08:59:53.629Z,99139.89
2018-01-08T09:02:21.076Z,99137.42
2018-01-08T09:04:48.852Z,99126.97
2018-01-08T09:07:16.301Z,99120.27
2018-01-08T09:09:44.460Z,99123.25
2018-01-08T09:12:12.384Z,99121.82
2018-01-08T09:14:39.851Z,99122.27
2018-01-08T09:17:07.301Z,99119.92
2018-01-08T09:19:35.161Z,99119.58
2018-01-08T09:22:02.621Z,99115.86
2018-01-08T09:24:30.072Z,99120.72
2018-01-08T09:26:57.836Z,99125.10
2018-01-08T09:29:25.281Z,99123.04
2018-01-08T09:31:52.723Z,99108.65
2018-01-08T09:34:20.463Z,99102.03
2018-01-08T09:36:47.912Z,99103.98
2018-01-08T09:39:15.360Z,99103.70
2018-01-08T09:41:43.217Z,99109.46
2018-01-08T09:44:10.669Z,99120.69
2018-01-08T09:46:38.109Z,99114.95
2018-01-08T09:49:05.921Z,99125.59
2018-01-08T09:51:33.361Z,99124.95
2018-01-08T09:54:00.810Z,99115.97
2018-01-08T09:56:28.589Z,99122.45
2018-01-08T09:58:56.025Z,99119.95
2018-01-08T10:01:23.469Z,99126.73
2018-01-08T10:04:03.001Z,99125.65
2018-01-08T10:06:42.117Z,99128.92
2018-01-08T10:09:21.529Z,99128.97
2018-01-08T10:12:01.128Z,99116.15
2018-01-08T10:14:40.417Z,99108.36
2018-01-08T10:17:19.641Z,99106.44
2018-01-08T10:20:04.522Z,99103.88
2018-01-08T10:22:31.973Z,99097.73
2018-01-08T10:24:59.443Z,99098.67
2018-01-08T10:27:27.180Z,99103.52
2018-01-08T10:29:54.627Z,99094.49
2018-01-08T10:32:22.075Z,99092.52
2018-01-08T10:34:50.104Z,99090.81
2018-01-08T10:37:17.553Z,99089.75
2018-01-08T10:39:44.993Z,99088.39
2018-01-08T10:42:18.414Z,99084.52
2018-01-08T10:44:51.394Z,99092.58
2018-01-08T10:47:25.009Z,99087.94
2018-01-08T10:49:57.968Z,99075.48
2018-01-08T10:52:24.854Z,99068.83
2018-01-08T10:54:56.895Z,99064.80
2018-01-08T10:57:24.347Z,99062.28
2018-01-08T10:59:51.794Z,99062.25
2018-01-08T11:02:24.814Z,99067.05
2018-01-08T11:04:52.253Z,99065.22
2018-01-08T11:07:19.697Z,99059.06
2018-01-08T11:09:47.509Z,99047.73
2018-01-08T11:12:14.947Z,99046.05
2018-01-08T11:14:42.386Z,99041.08
2018-01-08T11:17:10.205Z,99031.95
2018-01-08T11:19:37.673Z,99026.22
2018-01-08T11:22:05.117Z,99019.08
2018-01-08T11:24:33.181Z,99010.52
2018-01-08T11:27:00.625Z,99011.92
2018-01-08T11:29:28.078Z,99010.46
2018-01-08T11:31:55.870Z,99012.63
2018-01-08T11:34:23.308Z,99012.95
2018-01-08T11:36:50.761Z,99022.20
2018-01-08T11:39:18.564Z,99022.77
2018-01-08T11:41:46.010Z,99024.11
2018-01-08T11:44:13.461Z,99018.20
2018-01-08T11:46:41.247Z,99021.36
2018-01-08T11:49:08.709Z,99019.27
2018-01-08T11:51:36.156Z,99013.17
2018-01-08T11:54:03.947Z,99004.25
2018-01-08T11:56:31.412Z,98995.91
2018-01-08T11:58:58.857Z,98991.42
2018-01-08T12:01:26.488Z,98985.13
2018-01-08T12:03:53.934Z,98983.19
2018-01-08T12:06:21.385Z,98979.42
2018-01-08T12:08:49.309Z,98977.31
2018-01-08T12:11:16.764Z,98972.39
2018-01-08T12:13:44.616Z,98970.14
2018-01-08T12:16:12.609Z,98970.81
2018-01-08T12:18:40.057Z,98972.30
2018-01-08T12:21:07.503Z,98969.94
2018-01-08T12:23:35.301Z,98972.27
2018-01-08T12:26:02.744Z,98981.89
2018-01-08T12:28:30.189Z,98981.69
2018-01-08T12:30:58.284Z,98986.23
2018-01-08T12:33:25.724Z,98987.81
2018-01-08T12:35:53.174Z,98976.61
2018-01-08T12:38:20.981Z,98973.73
2018-01-08T12:40:48.416Z,98970.45
2018-01-08T12:43:15.860Z,98972.83
2018-01-08T12:45:43.436Z,98967.34
2018-01-08T12:48:10.885Z,98961.28
2018-01-08T12:50:38.332Z,98964.32
2018-01-08T12:53:06.055Z,98959.85
2018-01-08T12:55:33.500Z,98966.42
2018-01-08T12:58:00.950Z,98956.23
2018-01-08T13:00:28.737Z,98958.13
2018-01-08T13:02:56.188Z,98950.33
2018-01-08T13:05:23.651Z,98950.44
2018-01-08T13:07:51.381Z,98947.02
2018-01-08T13:10:18.836Z,98952.92
2018-01-08T13:12:46.303Z,98950.19
2018-01-08T13:15:14.105Z,98954.66
2018-01-08T13:17:42.354Z,98952.86
2018-01-08T13:20:09.801Z,98949.50
2018-01-08T13:22:37.720Z,98948.99
2018-01-08T13:25:05.174Z,98952.91
2018-01-08T13:27:32.861Z,98948.63
2018-01-08T13:30:00.713Z,98944.72
2018-01-08T13:32:28.181Z,98947.43
2018-01-08T13:34:55.625Z,98941.88
2018-01-08T13:37:23.402Z,98935.53
2018-01-08T13:39:50.864Z,98938.14
2018-01-08T13:42:18.326Z,98955.61
2018-01-08T13:44:46.365Z,98958.29
2018-01-08T13:47:13.810Z,98958.97
2018-01-08T13:49:41.277Z,98965.15
2018-01-08T13:52:09.390Z,98959.77
2018-01-08T13:54:36.856Z,98967.56
2018-01-08T13:57:04.314Z,98960.86
2018-01-08T13:59:32.063Z,98948.70
2018-01-08T14:01:59.525Z,98944.30
2018-01-08T14:04:26.981Z,98945.95
2018-01-08T14:06:54.761Z,98936.56
2018-01-08T14:09:22.222Z,98938.52
2018-01-08T14:11:49.698Z,98942.30
2018-01-08T14:14:17.448Z,98956.65
2018-01-08T14:16:45.601Z,98955.77
2018-01-08T14:19:13.061Z,98958.78
2018-01-08T14:21:41.368Z,98958.30
2018-01-08T14:24:08.821Z,98969.70
2018-01-08T14:26:36.273Z,98980.73
2018-01-08T14:29:04.045Z,98990.68
2018-01-08T14:31:31.497Z,98989.73
2018-01-08T14:33:58.952Z,98997.14
2018-01-08T14:36:26.718Z,99003.31
2018-01-08T14:38:54.173Z,99006.38
2018-01-08T14:41:21.637Z,98998.88
2018-01-08T14:43:49.437Z,98982.70
2018-01-08T14:46:16.894Z,98978.73
2018-01-08T14:48:44.346Z,98979.53
2018-01-08T14:51:12.109Z,98993.02
2018-01-08T14:53:39.577Z,98990.84
2018-01-08T14:56:07.034Z,98978.59
2018-01-08T14:58:34.793Z,98984.38
2018-01-08T15:01:02.249Z,98976.06
2018-01-08T15:03:29.705Z,98986.49
2018-01-08T15:05:57.507Z,98982.88
2018-01-08T15:08:24.978Z,98987.02
2018-01-08T15:10:52.424Z,98986.52
2018-01-08T15:13:20.143Z,98989.96
2018-01-08T15:15:47.590Z,98984.66
2018-01-08T15:18:16.740Z,98972.98
2018-01-08T15:20:44.396Z,98968.64
2018-01-08T15:23:11.850Z,98969.54
2018-01-08T15:25:39.299Z,98971.40
2018-01-08T15:28:07.004Z,98973.11
2018-01-08T15:30:34.479Z,98985.02
2018-01-08T15:33:01.933Z,98994.28
2018-01-08T15:35:29.773Z,98994.35
2018-01-08T15:37:57.229Z,98987.23
2018-01-08T15:40:24.689Z,98993.78
2018-01-08T15:42:52.672Z,98992.85
2018-01-08T15:45:20.116Z,98997.62
2018-01-08T15:47:47.586Z,98995.10
2018-01-08T15:50:15.452Z,98993.94
2018-01-08T15:52:42.971Z,99001.67
2018-01-08T15:55:10.385Z,99000.27
2018-01-08T15:57:38.145Z,99007.20
2018-01-08T16:00:05.609Z,99017.81
2018-01-08T16:02:33.065Z,99014.46
2018-01-08T16:05:00.817Z,99021.29
2018-01-08T16:07:28.264Z,99019.77
2018-01-08T16:09:55.717Z,99019.61
2018-01-08T16:12:23.512Z,99018.08
2018-01-08T16:14:50.975Z,99017.16
2018-01-08T16:17:18.434Z,99018.89
2018-01-08T16:19:46.512Z,99014.18
2018-01-08T16:22:13.982Z,99012.84
2018-01-08T16:24:41.444Z,99016.73
2018-01-08T16:27:09.200Z,99019.17
2018-01-08T16:29:36.667Z,99026.58
2018-01-08T16:32:04.123Z,99029.21
2018-01-08T16:34:31.889Z,99033.91
2018-01-08T16:36:59.350Z,99021.92
2018-01-08T16:39:26.821Z,99018.31
2018-01-08T16:41:54.558Z,99022.49
2018-01-08T16:44:22.032Z,99028.76
2018-01-08T16:46:49.484Z,99027.13
2018-01-08T16:49:17.192Z,99026.63
2018-01-08T16:51:44.654Z,99025.11
2018-01-08T16:54:12.112Z,99025.25
2018-01-08T16:56:39.948Z,99027.98
2018-01-08T16:59:07.394Z,99026.45
2018-01-08T17:01:34.859Z,99032.58
2018-01-08T17:04:02.622Z,99024.34
2018-01-08T17:06:30.072Z,99028.50
2018-01-08T17:08:57.570Z,99020.73
2018-01-08T17:11:25.247Z,99018.95
2018-01-08T17:13:52.694Z,99022.78
2018-01-08T17:16:20.138Z,99023.23
2018-01-08T17:18:48.306Z,99023.14
2018-01-08T17:21:16.152Z,99024.33
2018-01-08T17:23:43.604Z,99022.88
2018-01-08T17:26:11.297Z,99023.59
2018-01-08T17:28:38.773Z,99016.59
2018-01-08T17:31:06.228Z,99023.22
2018-01-08T17:33:34.288Z,99023.09
2018-01-08T17:36:01.742Z,99029.42
2018-01-08T17:38:29.365Z,99022.23
2018-01-08T17:40:56.991Z,99022.64
2018-01-08T17:43:24.442Z,99016.05
2018-01-08T17:45:52.539Z,99022.22
2018-01-08T17:48:20.961Z,99020.58
2018-01-08T17:50:48.412Z,99017.42
2018-01-08T17:53:15.885Z,99012.66
2018-01-08T17:55:44.206Z,99017.04
2018-01-08T17:58:11.661Z,99015.57
2018-01-08T18:00:39.102Z,99025.59
2018-01-08T18:03:07.101Z,99013.95
2018-01-08T18:05:34.550Z,99024.59
2018-01-08T18:08:02.016Z,99036.03
2018-01-08T18:10:29.843Z,99037.49
2018-01-08T18:12:57.637Z,99041.16
2018-01-08T18:15:25.085Z,99041.95
2018-01-08T18:17:52.886Z,99045.97
2018-01-08T18:20:20.349Z,99048.77
2018-01-08T18:22:49.234Z,99048.53
2018-01-08T18:25:17.670Z,99046.84
2018-01-08T18:27:45.140Z,99042.88
2018-01-08T18:30:12.616Z,99034.88
2018-01-08T18:32:40.426Z,99030.97
2018-01-08T18:35:08.453Z,99032.01
2018-01-08T18:37:35.904Z,99030.39
2018-01-08T18:40:03.708Z,99029.64
2018-01-08T18:42:31.180Z,99024.20
2018-01-08T18:44:58.635Z,99011.02
2018-01-08T18:47:26.398Z,99001.55
2018-01-08T18:49:53.858Z,98994.56
2018-01-08T18:52:21.305Z,99000.66
2018-01-08T18:54:49.138Z,98995.45
2018-01-08T18:57:16.601Z,98980.45
2018-01-08T18:59:44.052Z,98978.95
2018-01-08T19:02:12.709Z,98975.81
2018-01-08T19:04:40.176Z,98974.75
2018-01-08T19:07:07.630Z,98973.05
2018-01-08T19:09:35.990Z,98976.84
2018-01-08T19:12:03.497Z,98977.58
2018-01-08T19:14:31.772Z,98971.55
2018-01-08T19:16:59.590Z,98978.38
2018-01-08T19:19:27.031Z,98968.91
2018-01-08T19:21:54.498Z,98980.45
2018-01-08T19:24:25.520Z,98982.05
2018-01-08T19:26:53.617Z,98982.17
2018-01-08T19:29:21.085Z,98992.59
2018-01-08T19:31:49.058Z,98989.33
2018-01-08T19:34:16.514Z,98995.04
2018-01-08T19:36:43.960Z,98995.72
2018-01-08T19:39:11.971Z,98997.91
2018-01-08T19:41:39.433Z,98998.94
2018-01-08T19:44:06.912Z,98983.41
2018-01-08T19:46:34.666Z,98978.18
2018-01-08T19:49:02.629Z,98973.64
2018-01-08T19:51:30.138Z,98985.86
2018-01-08T19:53:57.937Z,98979.77
2018-01-08T19:56:25.388Z,98957.78
2018-01-08T19:58:52.877Z,98962.59
2018-01-08T20:01:20.973Z,98954.20
2018-01-08T20:03:48.430Z,98956.86
2018-01-08T20:06:15.895Z,98956.97
2018-01-08T20:08:43.647Z,98968.05
2018-01-08T20:11:11.109Z,98962.71
2018-01-08T20:13:38.573Z,98965.03
2018-01-08T20:16:06.286Z,98959.27
2018-01-08T20:18:33.772Z,98964.85
2018-01-08T20:21:01.260Z,98965.90
2018-01-08T20:23:28.997Z,98974.56
2018-01-08T20:25:57.158Z,98971.27
2018-01-08T20:28:25.178Z,98968.88
2018-01-08T20:30:52.928Z,98958.06
2018-01-08T20:33:20.381Z,98949.53
2018-01-08T20:35:47.845Z,98939.05
2018-01-08T20:38:15.596Z,98936.70
2018-01-08T20:40:43.052Z,98932.27
2018-01-08T20:43:10.516Z,98937.91
2018-01-08T20:45:38.294Z,98927.70
2018-01-08T20:48:06.044Z,98930.77
2018-01-08T20:50:33.489Z,98926.52
2018-01-08T20:53:01.913Z,98921.61
2018-01-08T20:55:29.370Z,98927.21
2018-01-08T20:57:56.814Z,98918.08
2018-01-08T21:00:24.895Z,98921.73
2018-01-08T21:02:52.352Z,98924.52
2018-01-08T21:05:19.821Z,98925.17
2018-01-08T21:07:47.582Z,98929.39
2018-01-08T21:10:15.031Z,98929.19
2018-01-08T21:12:42.479Z,98928.13
2018-01-08T21:15:10.274Z,98934.77
2018-01-08T21:17:37.733Z,98919.19
2018-01-08T21:20:05.193Z,98922.10
2018-01-08T21:22:32.952Z,98914.95
2018-01-08T21:25:00.401Z,98911.97
2018-01-08T21:27:28.258Z,98914.16
2018-01-08T21:29:57.228Z,98922.00
2018-01-08T21:32:24.728Z,98915.44
2018-01-08T21:34:52.174Z,98922.69
2018-01-08T21:37:20.001Z,98919.37
2018-01-08T21:39:47.484Z,98916.86
2018-01-08T21:42:15.544Z,98919.92
2018-01-08T21:44:43.486Z,98914.44
2018-01-08T21:47:11.811Z,98911.64
2018-01-08T21:49:39.281Z,98911.63
2018-01-08T21:52:07.129Z,98909.38
2018-01-08T21:54:34.577Z,98918.50
2018-01-08T21:57:02.025Z,98921.23
2018-01-08T21:59:29.769Z,98917.95
2018-01-08T22:01:57.214Z,98903.56
2018-01-08T22:04:24.661Z,98907.42
2018-01-08T22:06:52.461Z,98909.97
2018-01-08T22:09:19.909Z,98900.22
2018-01-08T22:11:47.357Z,98891.11
2018-01-08T22:14:15.146Z,98892.59
2018-01-08T22:16:42.590Z,98891.16
2018-01-08T22:19:10.720Z,98893.63
2018-01-08T22:21:38.446Z,98887.65
2018-01-08T22:24:05.889Z,98886.72
2018-01-08T22:26:33.345Z,98880.62
2018-01-08T22:29:01.747Z,98867.77
2018-01-08T22:31:29.257Z,98865.64
2018-01-08T22:33:56.718Z,98852.72
2018-01-08T22:36:24.433Z,98851.98
2018-01-08T22:38:51.882Z,98852.92
2018-01-08T22:41:19.333Z,98857.26
2018-01-08T22:43:47.069Z,98854.25
2018-01-08T22:46:14.521Z,98857.91
2018-01-08T22:48:41.974Z,98857.11
2018-01-08T22:51:09.805Z,98855.56
2018-01-08T22:53:37.393Z,98861.42
2018-01-08T22:56:04.846Z,98848.53
2018-01-08T22:58:32.785Z,98846.39
2018-01-08T23:01:00.229Z,98841.84
2018-01-08T23:03:27.677Z,98830.03
2018-01-08T23:05:55.485Z,98839.22
2018-01-08T23:08:22.940Z,98842.80
2018-01-08T23:10:50.403Z,98841.11
2018-01-08T23:13:18.185Z,98834.27
2018-01-08T23:15:45.636Z,98834.18
2018-01-08T23:18:13.084Z,98827.55
2018-01-08T23:20:40.860Z,98830.30
2018-01-08T23:23:08.553Z,98823.56
2018-01-08T23:25:36.008Z,98819.24
2018-01-08T23:28:04.160Z,98814.45
2018-01-08T23:30:32.314Z,98817.63
2018-01-08T23:32:59.775Z,98818.59
2018-01-08T23:35:27.785Z,98821.23
2018-01-08T23:37:55.237Z,98813.03
2018-01-08T23:40:22.692Z,98811.48
2018-01-08T23:42:50.465Z,98814.64
2018-01-08T23:45:17.925Z,98821.47
2018-01-08T23:47:45.385Z,98822.70
2018-01-08T23:50:13.153Z,98814.20
2018-01-08T23:52:40.613Z,98816.08
2018-01-08T23:55:08.066Z,98797.05
2018-01-08T23:57:35.658Z,98795.30
